createdAt,value
2019-04-25T00:01:46.359Z,99.90
2019-04-25T00:04:15.121Z,99.90
2019-04-25T00:06:44.014Z,99.90
2019-04-25T00:09:15.175Z,99.90
2019-04-25T00:11:46.551Z,99.90
2019-04-25T00:14:14.153Z,99.90
2019-04-25T00:16:45.141Z,99.90
2019-04-25T00:19:14.522Z,99.90
2019-04-25T00:21:53.634Z,99.90
2019-04-25T00:24:42.943Z,99.90
2019-04-25T00:27:11.807Z,99.90
2019-04-25T00:29:41.836Z,99.90
2019-04-25T00:32:11.721Z,99.90
2019-04-25T00:34:43.180Z,99.90
2019-04-25T00:37:12.262Z,99.90
2019-04-25T00:39:41.206Z,99.90
2019-04-25T00:42:12.216Z,99.90
2019-04-25T00:44:43.525Z,99.90
2019-04-25T00:47:11.762Z,99.90
2019-04-25T00:49:42.167Z,99.90
2019-04-25T00:52:11.611Z,99.90
2019-04-25T00:54:41.452Z,99.90
2019-04-25T00:57:12.089Z,99.90
2019-04-25T00:59:54.143Z,99.90
2019-04-25T01:02:24.271Z,99.90
2019-04-25T01:04:53.304Z,99.90
2019-04-25T01:07:22.768Z,99.90
2019-04-25T01:09:52.428Z,99.90
2019-04-25T01:12:21.680Z,99.90
2019-04-25T01:14:50.993Z,99.90
2019-04-25T01:17:21.151Z,99.90
2019-04-25T01:19:51.017Z,99.90
2019-04-25T01:22:19.509Z,99.90
2019-04-25T01:24:48.045Z,99.90
2019-04-25T01:27:16.585Z,99.90
2019-04-25T01:29:46.263Z,99.90
2019-04-25T01:32:16.455Z,99.90
2019-04-25T01:34:50.491Z,99.90
2019-04-25T01:37:36.119Z,99.90
2019-04-25T01:40:08.372Z,99.90
2019-04-25T01:42:38.602Z,99.90
2019-04-25T01:45:08.442Z,99.90
2019-04-25T01:47:37.099Z,99.90
2019-04-25T01:50:07.067Z,99.90
2019-04-25T01:52:35.650Z,99.90
2019-04-25T01:55:07.333Z,99.90
2019-04-25T01:57:35.878Z,99.90
2019-04-25T02:00:06.171Z,99.90
2019-04-25T02:02:34.682Z,99.90
2019-04-25T02:05:04.769Z,99.90
2019-04-25T02:07:33.539Z,99.90
2019-04-25T02:10:03.667Z,99.90
2019-04-25T02:12:33.862Z,99.90
2019-04-25T02:15:05.926Z,99.90
2019-04-25T02:17:34.021Z,99.90
2019-04-25T02:20:04.587Z,99.90
2019-04-25T02:22:33.942Z,99.90
2019-04-25T02:25:04.575Z,99.90
2019-04-25T02:27:34.255Z,99.90
2019-04-25T02:30:04.391Z,99.90
2019-04-25T02:32:34.449Z,99.90
2019-04-25T02:35:09.121Z,99.90
2019-04-25T02:37:35.200Z,99.90
2019-04-25T02:40:07.716Z,99.90
2019-04-25T02:42:35.887Z,99.90
2019-04-25T02:45:28.839Z,99.90
2019-04-25T02:48:07.579Z,99.90
2019-04-25T02:50:37.696Z,99.90
2019-04-25T02:53:07.783Z,99.90
2019-04-25T02:55:37.599Z,99.90
2019-04-25T02:58:10.023Z,99.90
2019-04-25T03:00:51.353Z,99.90
2019-04-25T03:03:08.524Z,99.90
2019-04-25T03:05:37.313Z,99.90
2019-04-25T03:08:08.987Z,99.90
2019-04-25T03:10:36.137Z,99.90
2019-04-25T03:13:09.742Z,99.90
2019-04-25T03:15:36.546Z,99.90
2019-04-25T03:18:10.391Z,99.90
2019-04-25T03:20:45.125Z,99.90
2019-04-25T03:23:34.954Z,99.90
2019-04-25T03:26:04.736Z,99.90
2019-04-25T03:28:34.519Z,99.90
2019-04-25T03:31:08.587Z,99.90
2019-04-25T03:33:37.921Z,99.90
2019-04-25T03:36:05.143Z,99.90
2019-04-25T03:38:34.279Z,99.90
2019-04-25T03:41:04.430Z,99.90
2019-04-25T03:43:33.287Z,99.90
2019-04-25T03:46:04.677Z,99.90
2019-04-25T03:48:36.383Z,99.90
2019-04-25T03:51:04.581Z,99.90
2019-04-25T03:53:33.787Z,99.90
2019-04-25T03:56:04.762Z,99.90
2019-04-25T03:58:33.747Z,99.90
2019-04-25T04:01:03.959Z,99.90
2019-04-25T04:03:33.927Z,99.90
2019-04-25T04:06:04.336Z,99.90
2019-04-25T04:08:34.332Z,99.90
2019-04-25T04:11:05.363Z,99.90
2019-04-25T04:13:34.239Z,99.90
2019-04-25T04:16:03.379Z,99.90
2019-04-25T04:18:34.652Z,99.90
2019-04-25T04:21:11.108Z,99.90
2019-04-25T04:23:43.727Z,99.90
2019-04-25T04:26:13.654Z,99.90
2019-04-25T04:28:43.526Z,99.90
2019-04-25T04:31:12.593Z,99.90
2019-04-25T04:33:43.136Z,99.90
2019-04-25T04:36:11.829Z,99.90
2019-04-25T04:38:40.370Z,99.90
2019-04-25T04:41:09.723Z,99.90
2019-04-25T04:43:38.230Z,99.90
2019-04-25T04:46:06.690Z,99.90
2019-04-25T04:48:35.328Z,99.90
2019-04-25T04:51:03.912Z,99.90
2019-04-25T04:53:35.543Z,99.90
2019-04-25T04:56:04.174Z,99.90
2019-04-25T04:58:34.215Z,99.90
2019-04-25T05:01:03.687Z,99.90
2019-04-25T05:03:36.838Z,99.90
2019-04-25T05:06:07.063Z,99.90
2019-04-25T05:08:37.179Z,99.90
2019-04-25T05:11:05.792Z,99.90
2019-04-25T05:13:34.296Z,99.90
2019-04-25T05:16:03.165Z,99.90
2019-04-25T05:18:36.897Z,99.90
2019-04-25T05:21:01.999Z,99.90
2019-04-25T05:23:30.810Z,99.90
2019-04-25T05:25:59.290Z,99.90
2019-04-25T05:28:27.778Z,99.90
2019-04-25T05:31:00.856Z,99.90
2019-04-25T05:33:29.332Z,99.90
2019-04-25T05:35:57.791Z,99.90
2019-04-25T05:38:26.336Z,99.90
2019-04-25T05:40:56.422Z,99.90
2019-04-25T05:43:26.500Z,99.90
2019-04-25T05:45:55.019Z,99.90
2019-04-25T05:48:25.121Z,99.90
2019-04-25T05:50:53.878Z,99.90
2019-04-25T05:53:23.847Z,99.90
2019-04-25T05:55:54.036Z,99.90
2019-04-25T05:58:24.596Z,99.90
2019-04-25T06:00:54.296Z,99.90
2019-04-25T06:03:24.858Z,99.90
2019-04-25T06:05:53.445Z,99.90
2019-04-25T06:08:25.469Z,99.90
2019-04-25T06:10:58.471Z,99.90
2019-04-25T06:13:46.702Z,99.90
2019-04-25T06:16:18.434Z,99.90
2019-04-25T06:18:48.764Z,99.10
2019-04-25T06:21:17.243Z,99.20
2019-04-25T06:23:47.343Z,98.50
2019-04-25T06:26:26.675Z,98.60
2019-04-25T06:28:53.825Z,98.70
2019-04-25T06:31:19.715Z,99.10
2019-04-25T06:33:48.488Z,98.80
2019-04-25T06:36:17.088Z,98.90
2019-04-25T06:38:45.671Z,98.30
2019-04-25T06:41:14.209Z,98.60
2019-04-25T06:43:44.410Z,97.90
2019-04-25T06:46:24.772Z,97.40
2019-04-25T06:48:54.995Z,97.20
2019-04-25T06:51:26.150Z,97.00
2019-04-25T06:53:55.436Z,96.40
2019-04-25T06:56:24.955Z,95.30
2019-04-25T06:58:54.980Z,95.40
2019-04-25T07:01:25.111Z,95.40
2019-04-25T07:03:54.743Z,94.20
2019-04-25T07:06:25.256Z,94.60
2019-04-25T07:08:53.597Z,94.90
2019-04-25T07:11:23.827Z,94.40
2019-04-25T07:13:53.702Z,94.20
2019-04-25T07:16:24.039Z,94.20
2019-04-25T07:18:53.450Z,92.80
2019-04-25T07:21:24.017Z,92.90
2019-04-25T07:30:48.435Z,92.60
2019-04-25T07:33:29.459Z,91.70
2019-04-25T07:36:04.346Z,90.30
2019-04-25T07:38:38.790Z,89.10
2019-04-25T07:45:18.943Z,86.70
2019-04-25T07:48:43.912Z,87.10
2019-04-25T07:50:59.918Z,86.50
2019-04-25T07:57:23.870Z,83.10
2019-04-25T08:00:27.370Z,84.50
2019-04-25T08:02:42.021Z,84.60
2019-04-25T08:07:53.855Z,82.20
2019-04-25T08:10:30.026Z,79.50
2019-04-25T08:16:30.170Z,81.80
2019-04-25T08:22:31.146Z,83.30
2019-04-25T08:25:21.035Z,82.20
2019-04-25T08:28:25.807Z,83.30
2019-04-25T08:31:23.469Z,83.80
2019-04-25T08:40:41.967Z,82.80
2019-04-25T08:45:59.417Z,82.80
2019-04-25T09:01:34.617Z,85.50
2019-04-25T09:03:38.479Z,87.80
2019-04-25T09:06:29.520Z,87.10
2019-04-25T09:09:23.547Z,87.10
2019-04-25T09:23:53.527Z,82.50
2019-04-25T09:37:41.409Z,80.00
2019-04-25T09:46:15.602Z,75.10
2019-04-25T09:48:46.708Z,71.00
2019-04-25T09:51:17.201Z,71.60
2019-04-25T09:54:03.505Z,70.80
2019-04-25T09:56:46.100Z,69.00
2019-04-25T09:59:26.790Z,69.20
2019-04-25T10:01:48.682Z,69.20
2019-04-25T10:04:17.361Z,66.30
2019-04-25T10:06:47.573Z,65.70
2019-04-25T10:09:18.256Z,67.30
2019-04-25T10:12:10.197Z,66.50
2019-04-25T10:14:26.715Z,66.70
2019-04-25T10:16:56.991Z,66.30
2019-04-25T10:19:25.812Z,65.80
2019-04-25T10:21:55.241Z,63.70
2019-04-25T10:24:24.187Z,64.70
2019-04-25T10:27:03.814Z,64.60
2019-04-25T10:29:41.296Z,64.70
2019-04-25T10:34:44.678Z,62.80
2019-04-25T10:37:16.068Z,61.90
2019-04-25T10:39:44.774Z,62.20
2019-04-25T10:42:14.722Z,60.10
2019-04-25T10:44:56.645Z,60.20
2019-04-25T11:10:49.868Z,59.00
2019-04-25T11:30:22.823Z,57.20
2019-04-25T11:35:50.713Z,56.40
2019-04-25T11:38:46.205Z,56.60
2019-04-25T11:57:08.349Z,50.00
2019-04-25T11:59:38.854Z,49.60
2019-04-25T12:30:56.402Z,51.90
2019-04-25T12:36:55.292Z,50.90
2019-04-25T12:39:43.278Z,51.70
2019-04-25T12:52:48.667Z,49.20
2019-04-25T12:55:23.894Z,48.50
2019-04-25T13:15:04.797Z,47.80
2019-04-25T13:17:39.214Z,46.90
2019-04-25T13:20:47.293Z,46.10
2019-04-25T13:22:55.750Z,46.50
2019-04-25T13:25:30.623Z,46.60
2019-04-25T13:35:16.673Z,47.50
2019-04-25T13:51:00.931Z,44.50
2019-04-25T14:14:57.211Z,47.50
2019-04-25T14:18:18.223Z,47.60
2019-04-25T14:23:58.079Z,47.60
2019-04-25T14:36:03.234Z,47.00
2019-04-25T14:38:56.152Z,46.80
2019-04-25T14:41:34.011Z,47.20
2019-04-25T14:53:13.604Z,47.40
2019-04-25T14:58:43.075Z,49.90
2019-04-25T15:01:43.830Z,50.30
2019-04-25T15:07:19.283Z,51.90
2019-04-25T15:10:43.574Z,52.10
2019-04-25T15:18:47.302Z,52.70
2019-04-25T15:36:53.818Z,52.40
2019-04-25T15:39:42.288Z,51.60
2019-04-25T15:42:38.810Z,53.20
2019-04-25T15:45:36.494Z,53.00
2019-04-25T15:48:25.236Z,52.40
2019-04-25T15:51:11.920Z,52.50
2019-04-25T15:54:07.390Z,53.50
2019-04-25T16:02:52.703Z,52.30
2019-04-25T16:05:38.539Z,51.30
2019-04-25T16:11:15.791Z,47.80
2019-04-25T16:14:08.016Z,48.00
2019-04-25T16:20:02.582Z,48.60
2019-04-25T16:22:41.370Z,49.10
2019-04-25T16:25:17.929Z,49.70
2019-04-25T16:27:48.430Z,50.20
2019-04-25T16:30:34.452Z,50.60
2019-04-25T16:33:02.257Z,51.10
2019-04-25T16:35:31.155Z,52.40
2019-04-25T16:41:16.491Z,51.20
2019-04-25T16:44:22.885Z,51.60
2019-04-25T16:50:09.651Z,52.80
2019-04-25T16:53:01.933Z,52.80
2019-04-25T16:56:07.777Z,53.20
2019-04-25T16:58:33.746Z,54.10
2019-04-25T17:01:10.218Z,54.10
2019-04-25T17:04:02.867Z,54.00
2019-04-25T17:06:33.932Z,54.90
2019-04-25T17:09:17.291Z,55.20
2019-04-25T17:18:12.240Z,56.40
2019-04-25T17:23:28.676Z,56.70
2019-04-25T17:26:00.395Z,56.40
2019-04-25T17:28:32.694Z,56.70
2019-04-25T17:31:20.665Z,57.60
2019-04-25T17:33:57.977Z,57.70
2019-04-25T17:37:03.695Z,58.50
2019-04-25T17:42:23.785Z,59.60
2019-04-25T17:44:52.793Z,59.60
2019-04-25T17:47:28.863Z,59.50
2019-04-25T17:50:06.646Z,59.90
2019-04-25T17:53:07.214Z,60.40
2019-04-25T17:55:39.702Z,61.20
2019-04-25T18:01:02.124Z,61.70
2019-04-25T18:11:50.830Z,64.00
2019-04-25T18:14:43.918Z,63.00
2019-04-25T18:29:07.391Z,66.40
2019-04-25T18:41:49.512Z,66.60
2019-04-25T19:00:01.992Z,69.00
2019-04-25T19:44:45.127Z,75.60
2019-04-25T20:01:05.416Z,80.10
2019-04-25T21:45:07.281Z,94.10
2019-04-25T21:51:01.072Z,95.50
2019-04-25T21:53:29.824Z,95.60
2019-04-25T21:55:59.589Z,95.30
2019-04-25T21:58:34.943Z,94.90
2019-04-25T22:01:05.523Z,93.40
2019-04-25T22:03:36.484Z,93.30
2019-04-25T22:06:05.386Z,93.10
2019-04-25T22:08:34.243Z,92.80
2019-04-25T22:11:14.414Z,92.00
